Terminal Aerodrome Forecast
Issued by NWS

Home | Current Version | Previous Version | Text Only | Print | Product List | Glossary On
Versions: 1 2 3 4 5 6 7 8 9 10 11 12 13 14 15 16 17 18 19
000
FTUS43 KSGF 262300
TAFBBG
TAF
KBBG 262320Z 2700/2724 30011G19KT P6SM FEW025 BKN040
     FM270300 30010KT P6SM SCT040
     FM271200 33006KT P6SM SKC=

USA.gov is the U.S. government's official web portal to all federal, state and local government web resources and services.